sensor_id;sensor_type;location;lat;lon;timestamp;pressure;altitude;pressure_sealevel;temperature;humidity
26376;BME280;30544;42.196;24.336;2023-02-23T00:00:13;99093.94;;;8.66;68.62
26376;BME280;30544;42.196;24.336;2023-02-23T00:02:46;99096.09;;;8.64;68.17
26376;BME280;30544;42.196;24.336;2023-02-23T00:05:14;99085.38;;;8.56;69.14
26376;BME280;30544;42.196;24.336;2023-02-23T00:07:42;99090.06;;;8.56;69.50
26376;BME280;30544;42.196;24.336;2023-02-23T00:10:11;99088.38;;;8.55;70.00
26376;BME280;30544;42.196;24.336;2023-02-23T00:12:40;99097.03;;;8.47;69.86
26376;BME280;30544;42.196;24.336;2023-02-23T00:15:08;99097.16;;;8.40;70.81
26376;BME280;30544;42.196;24.336;2023-02-23T00:17:34;99100.56;;;8.24;71.07
26376;BME280;30544;42.196;24.336;2023-02-23T00:20:06;99092.06;;;8.37;71.27
26376;BME280;30544;42.196;24.336;2023-02-23T00:22:34;99097.59;;;8.37;71.72
26376;BME280;30544;42.196;24.336;2023-02-23T00:25:01;99099.28;;;8.38;71.90
26376;BME280;30544;42.196;24.336;2023-02-23T00:27:34;99102.00;;;8.26;72.24
26376;BME280;30544;42.196;24.336;2023-02-23T00:30:06;99108.38;;;8.27;72.16
26376;BME280;30544;42.196;24.336;2023-02-23T00:32:33;99101.16;;;8.26;72.50
26376;BME280;30544;42.196;24.336;2023-02-23T00:35:01;99106.44;;;8.27;72.28
26376;BME280;30544;42.196;24.336;2023-02-23T00:37:28;99101.53;;;8.29;72.88
26376;BME280;30544;42.196;24.336;2023-02-23T00:39:55;99099.91;;;8.22;72.67
26376;BME280;30544;42.196;24.336;2023-02-23T00:42:22;99099.19;;;8.14;73.60
26376;BME280;30544;42.196;24.336;2023-02-23T00:44:53;99099.06;;;8.09;74.08
26376;BME280;30544;42.196;24.336;2023-02-23T00:47:22;99102.75;;;8.03;74.50
26376;BME280;30544;42.196;24.336;2023-02-23T00:49:49;99096.44;;;8.14;73.56
26376;BME280;30544;42.196;24.336;2023-02-23T00:52:16;99089.03;;;7.97;74.74
26376;BME280;30544;42.196;24.336;2023-02-23T00:54:43;99089.50;;;7.94;74.72
26376;BME280;30544;42.196;24.336;2023-02-23T00:57:10;99089.75;;;7.92;75.43
26376;BME280;30544;42.196;24.336;2023-02-23T00:59:37;99090.84;;;8.03;75.02
26376;BME280;30544;42.196;24.336;2023-02-23T01:02:03;99090.28;;;8.12;74.76
26376;BME280;30544;42.196;24.336;2023-02-23T01:04:32;99090.59;;;8.04;74.38
26376;BME280;30544;42.196;24.336;2023-02-23T01:06:58;99088.94;;;8.03;74.03
26376;BME280;30544;42.196;24.336;2023-02-23T01:09:28;99093.09;;;7.94;73.88
26376;BME280;30544;42.196;24.336;2023-02-23T01:11:56;99097.44;;;7.90;72.73
26376;BME280;30544;42.196;24.336;2023-02-23T01:14:26;99097.25;;;7.85;72.90
26376;BME280;30544;42.196;24.336;2023-02-23T01:16:53;99096.00;;;7.99;72.26
26376;BME280;30544;42.196;24.336;2023-02-23T01:19:20;99089.78;;;8.04;71.87
26376;BME280;30544;42.196;24.336;2023-02-23T01:21:48;99089.13;;;7.90;72.09
26376;BME280;30544;42.196;24.336;2023-02-23T01:24:15;99093.38;;;8.04;71.45
26376;BME280;30544;42.196;24.336;2023-02-23T01:26:43;99094.38;;;8.10;71.53
26376;BME280;30544;42.196;24.336;2023-02-23T01:29:12;99097.13;;;8.10;71.37
26376;BME280;30544;42.196;24.336;2023-02-23T01:31:41;99096.66;;;8.13;71.60
26376;BME280;30544;42.196;24.336;2023-02-23T01:34:09;99096.66;;;8.13;72.21
26376;BME280;30544;42.196;24.336;2023-02-23T01:36:38;99096.78;;;8.06;72.29
26376;BME280;30544;42.196;24.336;2023-02-23T01:39:14;99097.81;;;8.05;72.62
26376;BME280;30544;42.196;24.336;2023-02-23T01:41:42;99095.53;;;8.02;71.82
26376;BME280;30544;42.196;24.336;2023-02-23T01:47:08;99105.50;;;7.55;71.26
26376;BME280;30544;42.196;24.336;2023-02-23T01:49:35;99104.50;;;7.31;70.50
26376;BME280;30544;42.196;24.336;2023-02-23T01:52:05;99114.94;;;7.11;70.51
26376;BME280;30544;42.196;24.336;2023-02-23T01:54:38;99098.84;;;7.08;70.11
26376;BME280;30544;42.196;24.336;2023-02-23T01:57:08;99099.50;;;7.03;69.99
26376;BME280;30544;42.196;24.336;2023-02-23T01:59:39;99106.59;;;6.74;71.07
26376;BME280;30544;42.196;24.336;2023-02-23T02:02:07;99104.94;;;6.42;72.24
26376;BME280;30544;42.196;24.336;2023-02-23T02:04:35;99102.34;;;6.47;72.13
26376;BME280;30544;42.196;24.336;2023-02-23T02:07:09;99107.94;;;6.40;74.15
26376;BME280;30544;42.196;24.336;2023-02-23T02:09:38;99107.16;;;6.58;72.67
26376;BME280;30544;42.196;24.336;2023-02-23T02:12:07;99098.88;;;6.58;72.29
26376;BME280;30544;42.196;24.336;2023-02-23T02:14:36;99106.41;;;6.44;72.97
26376;BME280;30544;42.196;24.336;2023-02-23T02:17:19;99107.09;;;6.40;72.67
26376;BME280;30544;42.196;24.336;2023-02-23T02:20:32;99104.66;;;6.18;73.82
26376;BME280;30544;42.196;24.336;2023-02-23T02:26:14;99106.81;;;6.16;73.46
26376;BME280;30544;42.196;24.336;2023-02-23T02:29:02;99113.47;;;6.33;73.27
26376;BME280;30544;42.196;24.336;2023-02-23T02:31:53;99105.94;;;6.22;73.16
26376;BME280;30544;42.196;24.336;2023-02-23T02:34:53;99110.94;;;6.32;73.01
26376;BME280;30544;42.196;24.336;2023-02-23T02:37:40;99118.72;;;6.10;73.92
26376;BME280;30544;42.196;24.336;2023-02-23T02:40:18;99108.38;;;6.06;74.40
26376;BME280;30544;42.196;24.336;2023-02-23T02:42:55;99113.97;;;6.24;74.18
26376;BME280;30544;42.196;24.336;2023-02-23T02:45:29;99117.22;;;6.14;74.59
26376;BME280;30544;42.196;24.336;2023-02-23T02:48:04;99114.81;;;6.24;74.13
26376;BME280;30544;42.196;24.336;2023-02-23T02:50:38;99116.53;;;6.19;74.33
26376;BME280;30544;42.196;24.336;2023-02-23T02:53:09;99114.59;;;6.26;74.64
26376;BME280;30544;42.196;24.336;2023-02-23T02:55:40;99105.13;;;6.15;75.94
26376;BME280;30544;42.196;24.336;2023-02-23T02:58:10;99110.19;;;6.18;75.95
26376;BME280;30544;42.196;24.336;2023-02-23T03:00:39;99107.47;;;6.12;74.72
26376;BME280;30544;42.196;24.336;2023-02-23T03:03:29;99109.31;;;6.24;75.93
26376;BME280;30544;42.196;24.336;2023-02-23T03:06:13;99113.78;;;6.19;75.28
26376;BME280;30544;42.196;24.336;2023-02-23T03:09:03;99107.09;;;6.08;74.99
26376;BME280;30544;42.196;24.336;2023-02-23T03:11:58;99107.34;;;6.00;75.94
26376;BME280;30544;42.196;24.336;2023-02-23T03:14:53;99112.84;;;6.00;75.45
26376;BME280;30544;42.196;24.336;2023-02-23T03:17:43;99111.97;;;6.06;75.35
26376;BME280;30544;42.196;24.336;2023-02-23T03:20:36;99119.97;;;6.14;75.06
26376;BME280;30544;42.196;24.336;2023-02-23T03:23:28;99108.84;;;5.96;75.24
26376;BME280;30544;42.196;24.336;2023-02-23T03:26:20;99117.91;;;6.03;74.85
26376;BME280;30544;42.196;24.336;2023-02-23T03:29:11;99125.66;;;5.74;76.07
26376;BME280;30544;42.196;24.336;2023-02-23T03:32:02;99128.88;;;5.71;75.92
26376;BME280;30544;42.196;24.336;2023-02-23T03:34:53;99129.03;;;5.77;75.96
26376;BME280;30544;42.196;24.336;2023-02-23T03:37:43;99142.03;;;5.56;76.45
26376;BME280;30544;42.196;24.336;2023-02-23T03:40:32;99135.03;;;5.60;75.88
26376;BME280;30544;42.196;24.336;2023-02-23T03:43:22;99145.25;;;5.47;76.46
26376;BME280;30544;42.196;24.336;2023-02-23T03:46:09;99141.78;;;5.64;76.49
26376;BME280;30544;42.196;24.336;2023-02-23T03:48:56;99140.66;;;5.79;74.99
26376;BME280;30544;42.196;24.336;2023-02-23T03:51:45;99146.34;;;5.32;76.53
26376;BME280;30544;42.196;24.336;2023-02-23T03:54:34;99148.22;;;5.45;76.15
26376;BME280;30544;42.196;24.336;2023-02-23T03:57:21;99140.13;;;5.57;76.06
26376;BME280;30544;42.196;24.336;2023-02-23T04:00:13;99140.59;;;5.47;75.78
26376;BME280;30544;42.196;24.336;2023-02-23T04:03:02;99143.34;;;5.47;75.84
26376;BME280;30544;42.196;24.336;2023-02-23T04:05:50;99139.13;;;5.44;75.91
26376;BME280;30544;42.196;24.336;2023-02-23T04:08:37;99135.03;;;5.54;75.79
26376;BME280;30544;42.196;24.336;2023-02-23T04:11:27;99133.13;;;5.54;75.93
26376;BME280;30544;42.196;24.336;2023-02-23T04:14:17;99143.59;;;5.32;76.18
26376;BME280;30544;42.196;24.336;2023-02-23T04:16:46;99138.09;;;5.39;76.10
26376;BME280;30544;42.196;24.336;2023-02-23T04:19:12;99140.25;;;5.24;77.19
26376;BME280;30544;42.196;24.336;2023-02-23T04:21:39;99149.72;;;5.34;76.93
26376;BME280;30544;42.196;24.336;2023-02-23T04:24:06;99140.41;;;5.35;76.24
26376;BME280;30544;42.196;24.336;2023-02-23T04:26:33;99140.25;;;5.24;76.13
26376;BME280;30544;42.196;24.336;2023-02-23T04:29:00;99144.88;;;5.30;76.75
26376;BME280;30544;42.196;24.336;2023-02-23T04:31:26;99141.69;;;5.33;76.21
26376;BME280;30544;42.196;24.336;2023-02-23T04:33:54;99143.19;;;5.29;76.01
26376;BME280;30544;42.196;24.336;2023-02-23T04:36:22;99148.47;;;5.30;76.85
26376;BME280;30544;42.196;24.336;2023-02-23T04:38:51;99144.88;;;5.17;77.30
26376;BME280;30544;42.196;24.336;2023-02-23T04:41:17;99145.28;;;5.20;77.43
26376;BME280;30544;42.196;24.336;2023-02-23T04:43:44;99151.66;;;5.21;76.92
26376;BME280;30544;42.196;24.336;2023-02-23T04:46:11;99148.72;;;5.02;77.55
26376;BME280;30544;42.196;24.336;2023-02-23T04:48:38;99153.38;;;4.95;78.48
26376;BME280;30544;42.196;24.336;2023-02-23T04:51:06;99155.50;;;4.93;78.47
26376;BME280;30544;42.196;24.336;2023-02-23T04:53:33;99155.50;;;5.00;77.78
26376;BME280;30544;42.196;24.336;2023-02-23T04:55:59;99166.91;;;5.03;78.16
26376;BME280;30544;42.196;24.336;2023-02-23T04:58:26;99162.06;;;4.86;78.33
26376;BME280;30544;42.196;24.336;2023-02-23T05:00:53;99161.00;;;5.00;77.87
26376;BME280;30544;42.196;24.336;2023-02-23T05:03:20;99158.06;;;4.88;77.96
26376;BME280;30544;42.196;24.336;2023-02-23T05:05:46;99164.81;;;4.86;78.34
26376;BME280;30544;42.196;24.336;2023-02-23T05:08:15;99163.75;;;4.80;78.83
26376;BME280;30544;42.196;24.336;2023-02-23T05:10:41;99169.47;;;4.72;79.41
26376;BME280;30544;42.196;24.336;2023-02-23T05:13:08;99163.75;;;4.80;79.51
26376;BME280;30544;42.196;24.336;2023-02-23T05:15:35;99173.91;;;4.79;79.07
26376;BME280;30544;42.196;24.336;2023-02-23T05:18:02;99168.19;;;4.81;78.40
26376;BME280;30544;42.196;24.336;2023-02-23T05:20:29;99180.03;;;4.75;79.17
26376;BME280;30544;42.196;24.336;2023-02-23T05:22:56;99170.31;;;4.79;78.84
26376;BME280;30544;42.196;24.336;2023-02-23T05:25:24;99175.38;;;4.95;78.67
26376;BME280;30544;42.196;24.336;2023-02-23T05:27:51;99176.03;;;4.91;78.25
26376;BME280;30544;42.196;24.336;2023-02-23T05:30:18;99184.69;;;4.94;78.27
26376;BME280;30544;42.196;24.336;2023-02-23T05:32:44;99189.56;;;4.92;78.67
26376;BME280;30544;42.196;24.336;2023-02-23T05:35:11;99197.38;;;4.89;78.91
26376;BME280;30544;42.196;24.336;2023-02-23T05:37:38;99200.75;;;5.10;77.95
26376;BME280;30544;42.196;24.336;2023-02-23T05:40:06;99202.44;;;5.05;78.52
26376;BME280;30544;42.196;24.336;2023-02-23T05:42:34;99200.94;;;5.02;78.20
26376;BME280;30544;42.196;24.336;2023-02-23T05:45:03;99197.16;;;5.23;77.61
26376;BME280;30544;42.196;24.336;2023-02-23T05:47:30;99204.75;;;5.01;78.04
26376;BME280;30544;42.196;24.336;2023-02-23T05:49:59;99215.53;;;4.70;79.74
26376;BME280;30544;42.196;24.336;2023-02-23T05:52:26;99213.84;;;4.69;79.85
26376;BME280;30544;42.196;24.336;2023-02-23T05:54:53;99217.88;;;4.86;78.68
26376;BME280;30544;42.196;24.336;2023-02-23T05:57:20;99227.41;;;4.90;79.28
26376;BME280;30544;42.196;24.336;2023-02-23T05:59:48;99228.63;;;4.68;79.32
26376;BME280;30544;42.196;24.336;2023-02-23T06:02:15;99232.47;;;4.93;79.52
26376;BME280;30544;42.196;24.336;2023-02-23T06:04:42;99225.66;;;5.42;78.20
26376;BME280;30544;42.196;24.336;2023-02-23T06:07:09;99227.16;;;5.38;77.38
26376;BME280;30544;42.196;24.336;2023-02-23T06:09:36;99237.97;;;5.26;77.36
26376;BME280;30544;42.196;24.336;2023-02-23T06:12:03;99246.34;;;5.64;75.97
26376;BME280;30544;42.196;24.336;2023-02-23T06:14:29;99252.19;;;5.88;75.17
26376;BME280;30544;42.196;24.336;2023-02-23T06:16:58;99253.94;;;5.89;74.29
26376;BME280;30544;42.196;24.336;2023-02-23T06:19:24;99249.63;;;6.13;74.68
26376;BME280;30544;42.196;24.336;2023-02-23T06:21:51;99252.19;;;6.01;74.13
26376;BME280;30544;42.196;24.336;2023-02-23T06:24:18;99247.97;;;6.05;75.06
26376;BME280;30544;42.196;24.336;2023-02-23T06:26:45;99249.22;;;6.09;74.97
26376;BME280;30544;42.196;24.336;2023-02-23T06:29:13;99253.03;;;6.08;75.88
26376;BME280;30544;42.196;24.336;2023-02-23T06:31:41;99242.47;;;6.43;74.46
26376;BME280;30544;42.196;24.336;2023-02-23T06:34:10;99252.53;;;6.62;75.04
26376;BME280;30544;42.196;24.336;2023-02-23T06:36:37;99252.75;;;6.61;76.68
26376;BME280;30544;42.196;24.336;2023-02-23T06:39:04;99263.81;;;6.54;77.06
26376;BME280;30544;42.196;24.336;2023-02-23T06:41:31;99256.22;;;7.13;75.41
26376;BME280;30544;42.196;24.336;2023-02-23T06:43:58;99258.00;;;6.69;76.03
26376;BME280;30544;42.196;24.336;2023-02-23T06:46:25;99264.09;;;6.78;76.27
26376;BME280;30544;42.196;24.336;2023-02-23T06:48:53;99263.47;;;7.07;75.44
26376;BME280;30544;42.196;24.336;2023-02-23T06:51:22;99263.19;;;6.90;75.31
26376;BME280;30544;42.196;24.336;2023-02-23T06:53:49;99266.00;;;7.09;75.84
26376;BME280;30544;42.196;24.336;2023-02-23T06:56:16;99255.63;;;7.54;74.30
26376;BME280;30544;42.196;24.336;2023-02-23T06:58:43;99257.03;;;7.38;74.53
26376;BME280;30544;42.196;24.336;2023-02-23T07:01:10;99262.94;;;7.23;75.44
26376;BME280;30544;42.196;24.336;2023-02-23T07:03:37;99255.69;;;7.47;75.36
26376;BME280;30544;42.196;24.336;2023-02-23T07:06:04;99255.81;;;7.34;76.12
26376;BME280;30544;42.196;24.336;2023-02-23T07:08:33;99251.16;;;7.53;74.38
26376;BME280;30544;42.196;24.336;2023-02-23T07:11:05;99249.88;;;7.55;74.81
26376;BME280;30544;42.196;24.336;2023-02-23T07:13:33;99254.34;;;7.57;74.65
26376;BME280;30544;42.196;24.336;2023-02-23T07:16:00;99259.56;;;7.65;75.34
26376;BME280;30544;42.196;24.336;2023-02-23T07:18:29;99254.84;;;7.90;74.43
26376;BME280;30544;42.196;24.336;2023-02-23T07:20:55;99253.09;;;7.71;75.42
26376;BME280;30544;42.196;24.336;2023-02-23T07:23:22;99261.72;;;8.18;73.78
26376;BME280;30544;42.196;24.336;2023-02-23T07:25:51;99256.81;;;8.01;73.85
26376;BME280;30544;42.196;24.336;2023-02-23T07:28:19;99264.88;;;8.03;73.23
26376;BME280;30544;42.196;24.336;2023-02-23T07:30:46;99252.81;;;7.79;75.29
26376;BME280;30544;42.196;24.336;2023-02-23T07:33:14;99246.34;;;8.58;72.73
26376;BME280;30544;42.196;24.336;2023-02-23T07:35:41;99244.97;;;8.49;72.79
26376;BME280;30544;42.196;24.336;2023-02-23T07:38:09;99247.88;;;8.54;72.56
26376;BME280;30544;42.196;24.336;2023-02-23T07:40:37;99251.16;;;8.63;72.10
26376;BME280;30544;42.196;24.336;2023-02-23T07:43:05;99252.97;;;8.57;72.37
26376;BME280;30544;42.196;24.336;2023-02-23T07:45:32;99248.28;;;8.69;71.59
26376;BME280;30544;42.196;24.336;2023-02-23T07:47:59;99251.88;;;9.00;70.91
26376;BME280;30544;42.196;24.336;2023-02-23T07:50:25;99253.16;;;9.51;69.49
26376;BME280;30544;42.196;24.336;2023-02-23T07:52:52;99245.19;;;9.19;69.98
26376;BME280;30544;42.196;24.336;2023-02-23T07:55:19;99249.75;;;9.14;70.98
26376;BME280;30544;42.196;24.336;2023-02-23T07:57:46;99251.25;;;9.63;69.74
26376;BME280;30544;42.196;24.336;2023-02-23T08:00:15;99252.56;;;9.95;67.54
26376;BME280;30544;42.196;24.336;2023-02-23T08:02:42;99249.44;;;9.80;68.58
26376;BME280;30544;42.196;24.336;2023-02-23T08:05:09;99255.72;;;9.76;67.56
26376;BME280;30544;42.196;24.336;2023-02-23T08:07:36;99246.75;;;10.09;67.05
26376;BME280;30544;42.196;24.336;2023-02-23T08:10:03;99255.69;;;9.87;68.62
26376;BME280;30544;42.196;24.336;2023-02-23T08:12:31;99248.69;;;9.97;68.07
26376;BME280;30544;42.196;24.336;2023-02-23T08:14:58;99254.69;;;10.17;67.15
26376;BME280;30544;42.196;24.336;2023-02-23T08:17:26;99240.78;;;10.69;66.02
26376;BME280;30544;42.196;24.336;2023-02-23T08:19:53;99237.84;;;11.21;63.49
26376;BME280;30544;42.196;24.336;2023-02-23T08:22:20;99239.75;;;10.06;66.68
26376;BME280;30544;42.196;24.336;2023-02-23T08:24:47;99235.50;;;10.96;64.76
26376;BME280;30544;42.196;24.336;2023-02-23T08:27:14;99237.53;;;10.72;64.50
26376;BME280;30544;42.196;24.336;2023-02-23T08:29:40;99240.00;;;10.85;64.38
26376;BME280;30544;42.196;24.336;2023-02-23T08:32:07;99247.53;;;11.18;63.97
26376;BME280;30544;42.196;24.336;2023-02-23T08:34:38;99236.75;;;11.05;63.17
26376;BME280;30544;42.196;24.336;2023-02-23T08:37:05;99240.53;;;11.66;63.06
26376;BME280;30544;42.196;24.336;2023-02-23T08:39:32;99232.38;;;11.93;61.14
26376;BME280;30544;42.196;24.336;2023-02-23T08:41:59;99236.25;;;11.25;62.98
26376;BME280;30544;42.196;24.336;2023-02-23T08:44:26;99239.28;;;11.40;62.12
26376;BME280;30544;42.196;24.336;2023-02-23T08:46:52;99233.41;;;11.36;62.23
26376;BME280;30544;42.196;24.336;2023-02-23T08:49:21;99232.97;;;11.61;61.14
26376;BME280;30544;42.196;24.336;2023-02-23T08:51:49;99235.56;;;11.85;60.48
26376;BME280;30544;42.196;24.336;2023-02-23T08:54:16;99243.00;;;12.18;60.18
26376;BME280;30544;42.196;24.336;2023-02-23T08:56:44;99238.41;;;11.90;60.33
26376;BME280;30544;42.196;24.336;2023-02-23T08:59:12;99242.47;;;11.65;60.97
26376;BME280;30544;42.196;24.336;2023-02-23T09:01:39;99238.09;;;11.69;61.54
26376;BME280;30544;42.196;24.336;2023-02-23T09:04:06;99241.88;;;11.97;59.85
26376;BME280;30544;42.196;24.336;2023-02-23T09:06:33;99239.38;;;12.17;60.06
26376;BME280;30544;42.196;24.336;2023-02-23T09:09:02;99235.75;;;12.39;58.81
26376;BME280;30544;42.196;24.336;2023-02-23T09:11:29;99235.75;;;12.39;58.92
26376;BME280;30544;42.196;24.336;2023-02-23T09:13:56;99239.13;;;11.80;60.98
26376;BME280;30544;42.196;24.336;2023-02-23T09:16:23;99236.34;;;11.80;60.78
26376;BME280;30544;42.196;24.336;2023-02-23T09:18:49;99233.28;;;12.64;59.83
26376;BME280;30544;42.196;24.336;2023-02-23T09:21:18;99246.09;;;12.65;58.54
26376;BME280;30544;42.196;24.336;2023-02-23T09:23:49;99235.38;;;13.06;57.57
26376;BME280;30544;42.196;24.336;2023-02-23T09:26:18;99235.88;;;12.49;58.56
26376;BME280;30544;42.196;24.336;2023-02-23T09:28:45;99237.28;;;12.51;58.45
26376;BME280;30544;42.196;24.336;2023-02-23T09:31:14;99232.69;;;12.40;57.69
26376;BME280;30544;42.196;24.336;2023-02-23T09:33:41;99241.34;;;12.92;57.10
26376;BME280;30544;42.196;24.336;2023-02-23T09:36:09;99240.47;;;12.60;57.17
26376;BME280;30544;42.196;24.336;2023-02-23T09:38:37;99237.16;;;12.90;56.44
26376;BME280;30544;42.196;24.336;2023-02-23T09:41:25;99240.41;;;12.55;57.60
26376;BME280;30544;42.196;24.336;2023-02-23T09:43:58;99238.84;;;12.91;56.19
26376;BME280;30544;42.196;24.336;2023-02-23T09:46:33;99243.19;;;12.55;57.96
26376;BME280;30544;42.196;24.336;2023-02-23T09:49:04;99227.47;;;12.44;57.62
26376;BME280;30544;42.196;24.336;2023-02-23T09:51:38;99232.78;;;12.94;56.89
26376;BME280;30544;42.196;24.336;2023-02-23T09:54:10;99231.41;;;13.23;55.98
26376;BME280;30544;42.196;24.336;2023-02-23T09:56:42;99226.22;;;13.74;54.04
26376;BME280;30544;42.196;24.336;2023-02-23T09:59:13;99227.78;;;13.60;54.41
26376;BME280;30544;42.196;24.336;2023-02-23T10:01:51;99219.53;;;13.70;54.20
26376;BME280;30544;42.196;24.336;2023-02-23T10:04:22;99226.53;;;13.41;55.21
26376;BME280;30544;42.196;24.336;2023-02-23T10:06:53;99213.31;;;13.26;56.17
26376;BME280;30544;42.196;24.336;2023-02-23T10:09:28;99219.16;;;12.98;55.92
26376;BME280;30544;42.196;24.336;2023-02-23T10:12:01;99213.69;;;13.77;54.93
26376;BME280;30544;42.196;24.336;2023-02-23T10:14:53;99209.09;;;14.50;52.54
26376;BME280;30544;42.196;24.336;2023-02-23T10:17:29;99204.38;;;14.03;53.18
26376;BME280;30544;42.196;24.336;2023-02-23T10:20:03;99197.56;;;14.31;51.62
26376;BME280;30544;42.196;24.336;2023-02-23T10:22:32;99198.78;;;13.98;52.29
26376;BME280;30544;42.196;24.336;2023-02-23T10:25:03;99200.84;;;13.34;54.22
26376;BME280;30544;42.196;24.336;2023-02-23T10:27:37;99196.56;;;13.58;52.93
26376;BME280;30544;42.196;24.336;2023-02-23T10:30:15;99196.03;;;14.03;52.70
26376;BME280;30544;42.196;24.336;2023-02-23T10:32:49;99185.72;;;14.61;51.13
26376;BME280;30544;42.196;24.336;2023-02-23T10:35:20;99179.53;;;14.54;51.93
26376;BME280;30544;42.196;24.336;2023-02-23T10:37:48;99180.00;;;14.41;51.41
26376;BME280;30544;42.196;24.336;2023-02-23T10:40:17;99176.75;;;14.59;51.36
26376;BME280;30544;42.196;24.336;2023-02-23T10:42:48;99172.91;;;14.91;50.91
26376;BME280;30544;42.196;24.336;2023-02-23T10:45:17;99180.53;;;14.28;50.93
26376;BME280;30544;42.196;24.336;2023-02-23T10:47:49;99170.22;;;14.33;50.64
26376;BME280;30544;42.196;24.336;2023-02-23T10:50:18;99164.47;;;14.55;50.61
26376;BME280;30544;42.196;24.336;2023-02-23T10:52:47;99156.44;;;14.79;49.98
26376;BME280;30544;42.196;24.336;2023-02-23T10:55:22;99156.69;;;14.93;49.70
26376;BME280;30544;42.196;24.336;2023-02-23T10:58:02;99157.28;;;15.20;49.08
26376;BME280;30544;42.196;24.336;2023-02-23T11:00:30;99152.25;;;14.82;50.21
26376;BME280;30544;42.196;24.336;2023-02-23T11:03:00;99147.78;;;15.47;49.19
26376;BME280;30544;42.196;24.336;2023-02-23T11:05:36;99148.34;;;15.39;49.61
26376;BME280;30544;42.196;24.336;2023-02-23T11:08:16;99146.69;;;15.17;49.13
26376;BME280;30544;42.196;24.336;2023-02-23T11:10:58;99143.84;;;15.58;47.68
26376;BME280;30544;42.196;24.336;2023-02-23T11:13:27;99137.16;;;15.59;47.41
26376;BME280;30544;42.196;24.336;2023-02-23T11:15:59;99137.16;;;15.64;48.35
26376;BME280;30544;42.196;24.336;2023-02-23T11:18:27;99132.94;;;15.61;48.47
26376;BME280;30544;42.196;24.336;2023-02-23T11:20:55;99132.72;;;15.12;48.88
26376;BME280;30544;42.196;24.336;2023-02-23T11:23:24;99131.28;;;15.10;49.53
26376;BME280;30544;42.196;24.336;2023-02-23T11:25:55;99122.94;;;15.04;50.47
26376;BME280;30544;42.196;24.336;2023-02-23T11:28:28;99126.53;;;15.61;48.87
26376;BME280;30544;42.196;24.336;2023-02-23T11:30:59;99126.53;;;15.46;50.07
26376;BME280;30544;42.196;24.336;2023-02-23T11:33:29;99130.91;;;15.92;48.78
26376;BME280;30544;42.196;24.336;2023-02-23T11:36:15;99128.25;;;15.01;50.67
26376;BME280;30544;42.196;24.336;2023-02-23T11:38:44;99130.44;;;15.40;50.43
26376;BME280;30544;42.196;24.336;2023-02-23T11:41:19;99123.41;;;15.83;49.92
26376;BME280;30544;42.196;24.336;2023-02-23T11:43:49;99124.03;;;15.64;49.24
26376;BME280;30544;42.196;24.336;2023-02-23T11:46:17;99117.88;;;15.47;49.83
26376;BME280;30544;42.196;24.336;2023-02-23T11:48:49;99113.66;;;15.70;49.10
26376;BME280;30544;42.196;24.336;2023-02-23T11:51:24;99117.47;;;16.00;48.05
26376;BME280;30544;42.196;24.336;2023-02-23T11:53:53;99116.97;;;15.77;48.44
26376;BME280;30544;42.196;24.336;2023-02-23T11:56:21;99122.00;;;15.85;48.28
26376;BME280;30544;42.196;24.336;2023-02-23T11:58:53;99122.63;;;15.62;49.26
26376;BME280;30544;42.196;24.336;2023-02-23T12:01:33;99131.13;;;16.11;48.03
26376;BME280;30544;42.196;24.336;2023-02-23T12:04:00;99123.16;;;15.79;47.26
26376;BME280;30544;42.196;24.336;2023-02-23T12:06:31;99124.06;;;15.29;49.94
26376;BME280;30544;42.196;24.336;2023-02-23T12:09:05;99122.63;;;15.37;49.95
26376;BME280;30544;42.196;24.336;2023-02-23T12:11:36;99118.09;;;15.76;48.82
26376;BME280;30544;42.196;24.336;2023-02-23T12:14:10;99124.03;;;16.34;47.17
26376;BME280;30544;42.196;24.336;2023-02-23T12:16:40;99120.22;;;16.15;47.18
26376;BME280;30544;42.196;24.336;2023-02-23T12:19:21;99120.19;;;16.20;47.44
26376;BME280;30544;42.196;24.336;2023-02-23T12:21:54;99109.22;;;16.29;46.50
26376;BME280;30544;42.196;24.336;2023-02-23T12:24:30;99120.63;;;16.42;46.76
26376;BME280;30544;42.196;24.336;2023-02-23T12:27:07;99118.94;;;16.41;45.91
26376;BME280;30544;42.196;24.336;2023-02-23T12:29:53;99122.31;;;16.38;46.37
26376;BME280;30544;42.196;24.336;2023-02-23T12:32:27;99125.38;;;16.47;46.96
26376;BME280;30544;42.196;24.336;2023-02-23T12:35:00;99128.28;;;16.21;47.71
26376;BME280;30544;42.196;24.336;2023-02-23T12:37:36;99123.44;;;16.37;47.05
26376;BME280;30544;42.196;24.336;2023-02-23T12:40:12;99126.69;;;16.05;47.98
26376;BME280;30544;42.196;24.336;2023-02-23T12:42:45;99119.94;;;16.71;47.32
26376;BME280;30544;42.196;24.336;2023-02-23T12:45:21;99122.13;;;16.74;46.69
26376;BME280;30544;42.196;24.336;2023-02-23T12:47:54;99127.91;;;16.38;47.26
26376;BME280;30544;42.196;24.336;2023-02-23T12:50:27;99127.88;;;16.43;47.03
26376;BME280;30544;42.196;24.336;2023-02-23T12:52:58;99131.50;;;16.49;47.27
26376;BME280;30544;42.196;24.336;2023-02-23T12:55:32;99131.47;;;15.94;47.95
26376;BME280;30544;42.196;24.336;2023-02-23T12:58:13;99127.19;;;16.12;48.20
26376;BME280;30544;42.196;24.336;2023-02-23T13:00:50;99126.22;;;16.42;47.93
26376;BME280;30544;42.196;24.336;2023-02-23T13:03:49;99128.03;;;16.72;47.52
26376;BME280;30544;42.196;24.336;2023-02-23T13:06:26;99132.84;;;16.57;47.62
26376;BME280;30544;42.196;24.336;2023-02-23T13:09:00;99131.94;;;16.12;48.62
26376;BME280;30544;42.196;24.336;2023-02-23T13:11:45;99140.94;;;16.04;48.38
26376;BME280;30544;42.196;24.336;2023-02-23T13:14:21;99135.09;;;15.95;49.65
26376;BME280;30544;42.196;24.336;2023-02-23T13:16:56;99128.66;;;15.94;49.54
26376;BME280;30544;42.196;24.336;2023-02-23T13:19:26;99128.91;;;16.13;48.36
26376;BME280;30544;42.196;24.336;2023-02-23T13:22:02;99136.38;;;16.23;48.99
26376;BME280;30544;42.196;24.336;2023-02-23T13:24:35;99137.53;;;16.17;49.69